Terminal Aerodrome Forecast
Issued by NWS

Home | Current Version | Previous Version | Text Only | Print | Product List | Glossary On
Versions: 1 2 3 4 5 6 7 8 9 10 11 12 13 14
000
FTUS44 KEPZ 250500
TAFDMN
TAF
KDMN 250540Z 2506/2606 28015G25KT P6SM VCSH SCT120 BKN250
     FM251000 27008KT P6SM SCT200
     FM251700 27015G25KT P6SM FEW250
     FM260300 29010KT P6SM SKC=

USA.gov is the U.S. government's official web portal to all federal, state and local government web resources and services.